Time;durP1;ratioP1;P1;durP2;ratioP2;P2;SDS_P1;SDS_P2;PMS_P1;PMS_P2;Temp;Humidity;BMP_temperature;BMP_pressure;BME280_temperature;BME280_humidity;BME280_pressure;Samples;Min_cycle;Max_cycle;Signal;HPM_P1;HPM_P2
2021/11/11 00:00:48;;;;;;;;;28.50;25.00;;;;;20.40;38.11;102074.88;4962294;28;51199;-47
2021/11/11 00:03:14;;;;;;;;;29.00;24.00;;;;;20.40;37.98;102065.75;4958605;28;52795;-50
2021/11/11 00:05:40;;;;;;;;;23.00;18.75;;;;;20.39;37.83;102064.06;4956682;28;51303;-52
2021/11/11 00:08:06;;;;;;;;;26.25;22.75;;;;;20.38;38.03;102065.94;4962022;28;52501;-48
2021/11/11 00:10:32;;;;;;;;;26.75;25.50;;;;;20.36;38.11;102062.53;4958723;28;51219;-52
2021/11/11 00:12:59;;;;;;;;;31.00;25.75;;;;;20.35;38.42;102068.25;4965594;28;52141;-53
2021/11/11 00:15:25;;;;;;;;;27.00;23.75;;;;;20.33;38.02;102073.09;4968837;28;51231;-51
2021/11/11 00:17:52;;;;;;;;;25.50;22.00;;;;;20.32;38.03;102076.88;4955395;28;51338;-51
2021/11/11 00:20:21;;;;;;;;;28.25;25.00;;;;;20.32;37.69;102079.63;4961189;28;51141;-53
2021/11/11 00:22:47;;;;;;;;;28.25;25.00;;;;;20.29;38.12;102074.50;4961984;28;51895;-51
2021/11/11 00:25:15;;;;;;;;;22.75;20.00;;;;;20.28;38.02;102079.16;4957348;28;51501;-51
2021/11/11 00:27:41;;;;;;;;;29.50;22.25;;;;;20.26;37.96;102078.50;4965934;28;51337;-50
2021/11/11 00:30:13;;;;;;;;;33.50;24.50;;;;;20.25;38.28;102076.78;4958528;28;51383;-52
2021/11/11 00:32:39;;;;;;;;;29.00;22.00;;;;;20.25;38.00;102067.69;4961796;28;51220;-52
2021/11/11 00:35:07;;;;;;;;;30.25;26.50;;;;;20.22;38.29;102057.03;4963564;28;51282;-50
2021/11/11 00:37:33;;;;;;;;;27.25;20.50;;;;;20.21;37.95;102047.09;4962137;28;50970;-52
2021/11/11 00:39:58;;;;;;;;;26.75;23.25;;;;;20.20;38.18;102043.47;4962578;28;51135;-50
2021/11/11 00:42:23;;;;;;;;;24.25;20.25;;;;;20.18;38.11;102045.59;4959375;28;51772;-52
2021/11/11 00:44:49;;;;;;;;;28.00;23.50;;;;;20.17;38.22;102043.88;4956733;28;51515;-50
2021/11/11 00:47:16;;;;;;;;;25.25;24.75;;;;;20.14;37.99;102036.88;4957005;28;51158;-51
2021/11/11 00:49:42;;;;;;;;;26.75;25.50;;;;;20.14;37.92;102031.38;4964859;28;51409;-48
2021/11/11 00:52:08;;;;;;;;;22.75;20.75;;;;;20.12;38.00;102038.09;4960677;28;52714;-47
2021/11/11 00:54:34;;;;;;;;;27.50;25.00;;;;;20.12;37.95;102040.88;4954702;28;51431;-50
2021/11/11 00:56:59;;;;;;;;;27.25;27.25;;;;;20.10;38.19;102038.28;4960634;28;51286;-52
2021/11/11 00:59:25;;;;;;;;;28.75;25.25;;;;;20.09;38.12;102042.06;4967304;28;51128;-50
2021/11/11 01:01:50;;;;;;;;;31.25;28.00;;;;;20.07;38.13;102041.41;4960731;28;51098;-52
2021/11/11 01:04:16;;;;;;;;;26.75;25.75;;;;;20.07;38.32;102035.06;4959729;28;51129;-49
2021/11/11 01:06:41;;;;;;;;;32.75;29.00;;;;;20.05;38.27;102034.41;4955113;28;51015;-49
2021/11/11 01:09:07;;;;;;;;;29.25;25.50;;;;;20.04;38.30;102038.22;4953338;28;51405;-51
2021/11/11 01:11:32;;;;;;;;;31.25;24.50;;;;;20.04;38.28;102032.69;4956749;28;51001;-49
2021/11/11 01:13:57;;;;;;;;;30.00;28.75;;;;;20.02;38.13;102041.16;4960977;28;51144;-52
2021/11/11 01:16:23;;;;;;;;;28.00;26.00;;;;;20.02;38.40;102040.31;4964412;28;51408;-51
2021/11/11 01:18:49;;;;;;;;;24.00;22.75;;;;;20.00;37.83;102031.34;4962884;28;51357;-52
2021/11/11 01:21:14;;;;;;;;;26.25;22.00;;;;;19.98;37.95;102028.81;4957056;28;53408;-51
2021/11/11 01:23:40;;;;;;;;;29.50;28.00;;;;;19.98;38.24;102022.44;4966882;28;51508;-50
2021/11/11 01:26:07;;;;;;;;;25.75;21.25;;;;;19.97;38.18;102023.50;4958998;28;51248;-52
2021/11/11 01:28:33;;;;;;;;;28.00;26.00;;;;;19.96;38.03;102025.41;4964984;28;51313;-50
2021/11/11 01:30:58;;;;;;;;;32.25;27.00;;;;;19.95;38.13;102029.19;4960236;28;51194;-50
2021/11/11 01:33:24;;;;;;;;;31.25;26.75;;;;;19.94;38.26;102027.50;4961419;28;51243;-52
2021/11/11 01:35:50;;;;;;;;;29.25;26.75;;;;;19.92;37.98;102024.09;4967534;28;51065;-53
2021/11/11 01:38:16;;;;;;;;;27.50;26.75;;;;;19.91;38.39;102019.63;4957678;28;51164;-50
2021/11/11 01:40:41;;;;;;;;;25.50;24.50;;;;;19.90;38.51;102015.16;4964168;28;51164;-53
2021/11/11 01:43:08;;;;;;;;;29.00;27.50;;;;;19.90;38.30;102009.66;4963316;28;51058;-49
2021/11/11 01:45:39;;;;;;;;;31.50;30.25;;;;;19.90;38.25;102004.16;4967595;28;51180;-52
2021/11/11 01:48:06;;;;;;;;;33.00;27.25;;;;;19.88;38.12;102004.34;4971052;28;51045;-51
2021/11/11 01:50:32;;;;;;;;;26.50;24.25;;;;;19.87;38.31;101993.53;4969677;28;51906;-51
2021/11/11 01:53:00;;;;;;;;;26.25;24.25;;;;;19.86;38.23;101992.69;4961725;28;51110;-52
2021/11/11 01:55:26;;;;;;;;;28.25;26.75;;;;;19.84;38.40;101992.03;4964243;28;51275;-52
2021/11/11 01:57:51;;;;;;;;;27.75;26.00;;;;;19.84;38.54;101991.19;4968932;28;51367;-53
2021/11/11 02:00:23;;;;;;;;;26.75;23.75;;;;;19.82;38.48;101990.53;4960612;28;52036;-51
2021/11/11 02:02:57;;;;;;;;;24.00;23.75;;;;;19.81;38.45;102003.41;4955599;28;51635;-52
2021/11/11 02:05:23;;;;;;;;;31.50;28.00;;;;;19.80;38.15;102001.72;4956389;28;51326;-51
2021/11/11 02:07:50;;;;;;;;;26.00;24.50;;;;;19.79;38.30;101999.97;4972026;28;51180;-52
2021/11/11 02:10:15;;;;;;;;;34.00;28.00;;;;;19.79;38.50;102002.72;4960438;28;51813;-52
2021/11/11 02:12:41;;;;;;;;;29.50;26.75;;;;;19.78;38.43;101989.19;4963799;28;51180;-52
2021/11/11 02:15:07;;;;;;;;;28.75;24.25;;;;;19.77;38.21;101984.72;4959143;28;51191;-52
2021/11/11 02:17:33;;;;;;;;;27.75;25.50;;;;;19.75;38.38;101982.16;4955264;28;51067;-50
2021/11/11 02:20:03;;;;;;;;;28.50;27.25;;;;;19.75;38.38;101984.06;4960259;28;51774;-50
2021/11/11 02:22:28;;;;;;;;;27.00;24.50;;;;;19.75;38.50;101984.06;4957435;28;51446;-52
2021/11/11 02:24:54;;;;;;;;;28.75;23.00;;;;;19.74;38.25;101987.88;4967505;28;51132;-51
2021/11/11 02:27:19;;;;;;;;;28.25;26.00;;;;;19.73;38.24;101980.66;4959354;28;51173;-49
2021/11/11 02:29:44;;;;;;;;;26.50;22.75;;;;;19.71;38.52;101983.59;4960622;28;52048;-50
2021/11/11 02:32:10;;;;;;;;;26.50;23.75;;;;;19.71;38.28;101991.00;4960065;28;51267;-49
2021/11/11 02:34:35;;;;;;;;;22.75;22.75;;;;;19.70;38.60;101992.03;4960298;28;51837;-50
2021/11/11 02:37:03;;;;;;;;;28.50;24.50;;;;;19.70;38.26;102000.28;4965899;28;51069;-52
2021/11/11 02:39:31;;;;;;;;;26.00;23.00;;;;;19.69;38.33;101998.56;4964260;28;51418;-51
2021/11/11 02:41:58;;;;;;;;;26.75;23.50;;;;;19.69;38.58;101993.06;4957077;28;51534;-50
2021/11/11 02:44:24;;;;;;;;;26.50;24.75;;;;;19.68;38.65;101999.59;4960459;28;51142;-51
2021/11/11 02:46:49;;;;;;;;;26.00;23.75;;;;;19.67;38.51;102006.16;4964865;28;51303;-52
2021/11/11 02:49:14;;;;;;;;;28.25;23.50;;;;;19.66;38.53;102007.19;4960567;28;51134;-52
2021/11/11 02:51:40;;;;;;;;;31.00;25.75;;;;;19.63;38.70;102004.84;4962319;28;51097;-52
2021/11/11 02:54:05;;;;;;;;;29.50;24.50;;;;;19.63;38.77;102000.19;4961655;28;50908;-52
2021/11/11 02:56:31;;;;;;;;;24.50;22.25;;;;;19.63;38.48;101991.09;4967125;28;50957;-52
2021/11/11 02:58:57;;;;;;;;;25.25;24.75;;;;;19.62;38.45;101994.88;4964046;28;51172;-51
2021/11/11 03:01:23;;;;;;;;;24.75;22.25;;;;;19.60;38.42;101998.69;4959608;28;51235;-51
2021/11/11 03:03:48;;;;;;;;;27.75;25.25;;;;;19.60;38.35;101995.94;4970335;28;51144;-51
2021/11/11 03:06:14;;;;;;;;;23.50;21.75;;;;;19.59;38.70;101990.59;4956381;28;50998;-51
2021/11/11 03:08:39;;;;;;;;;31.00;25.75;;;;;19.58;38.42;101992.47;4961306;28;51137;-52
2021/11/11 03:11:05;;;;;;;;;27.50;22.75;;;;;19.57;38.60;101993.53;4955944;28;51094;-50
2021/11/11 03:13:31;;;;;;;;;27.25;23.00;;;;;19.55;38.32;101990.13;4935000;28;1105881;-52
2021/11/11 03:15:58;;;;;;;;;27.50;26.00;;;;;19.55;38.46;101997.47;4956237;28;51322;-51
2021/11/11 03:18:23;;;;;;;;;23.00;21.25;;;;;19.54;38.36;101995.78;4966865;28;51801;-51
2021/11/11 03:20:49;;;;;;;;;33.50;27.75;;;;;19.54;38.45;101991.13;4971960;28;51134;-53
2021/11/11 03:23:15;;;;;;;;;26.00;24.25;;;;;19.53;38.35;101994.06;4960869;28;51094;-49
2021/11/11 03:25:40;;;;;;;;;22.00;21.25;;;;;19.52;38.62;101992.38;4955341;28;51318;-52
2021/11/11 03:28:07;;;;;;;;;31.00;25.25;;;;;19.51;38.44;101996.16;4965227;28;51962;-52
2021/11/11 03:30:34;;;;;;;;;20.75;20.00;;;;;19.50;38.80;101995.31;4970285;28;51043;-50
2021/11/11 03:32:59;;;;;;;;;24.50;22.25;;;;;19.50;38.65;101997.22;4966858;28;51224;-52
2021/11/11 03:35:25;;;;;;;;;28.75;23.50;;;;;19.49;38.75;101990.00;4956264;28;50963;-53
2021/11/11 03:37:52;;;;;;;;;25.50;22.00;;;;;19.48;38.50;101999.28;4957444;28;51160;-52
2021/11/11 03:40:21;;;;;;;;;30.75;24.25;;;;;19.46;38.69;101996.72;4957779;28;51354;-53
2021/11/11 03:42:48;;;;;;;;;25.50;23.75;;;;;19.46;38.49;101993.97;4954116;28;51152;-52
2021/11/11 03:45:16;;;;;;;;;24.25;22.00;;;;;19.46;38.80;102010.44;4957711;28;51209;-50
2021/11/11 03:47:43;;;;;;;;;26.25;22.75;;;;;19.46;38.62;102006.84;4969339;28;51323;-53
2021/11/11 03:50:09;;;;;;;;;27.50;25.75;;;;;19.44;38.67;102009.78;4955671;28;51063;-53
2021/11/11 03:52:35;;;;;;;;;22.50;20.50;;;;;19.44;38.81;102008.94;4968119;28;51431;-52
2021/11/11 03:55:01;;;;;;;;;21.50;21.50;;;;;19.42;38.76;102006.38;4971661;28;50963;-53
2021/11/11 03:57:27;;;;;;;;;22.25;21.00;;;;;19.43;38.77;102010.00;4969566;28;51099;-53
2021/11/11 03:59:53;;;;;;;;;23.75;21.25;;;;;19.41;38.82;102012.06;4959740;28;51136;-51
2021/11/11 04:02:23;;;;;;;;;21.25;20.00;;;;;19.41;38.75;102010.19;4971003;28;51160;-53
2021/11/11 04:04:48;;;;;;;;;23.00;21.50;;;;;19.41;38.70;102010.19;4972522;28;51164;-52
2021/11/11 04:07:14;;;;;;;;;31.00;23.50;;;;;19.40;38.68;102005.72;4972941;28;51112;-52
2021/11/11 04:09:39;;;;;;;;;26.25;21.50;;;;;19.39;38.80;102014.16;4967656;28;52502;-52
2021/11/11 04:12:05;;;;;;;;;28.75;22.00;;;;;19.38;39.00;102016.03;4970624;28;51373;-52
2021/11/11 04:14:32;;;;;;;;;25.25;23.75;;;;;19.38;38.53;102015.16;4970940;28;51050;-53
2021/11/11 04:16:57;;;;;;;;;27.00;24.25;;;;;19.37;38.81;102013.47;4954662;28;51766;-51
2021/11/11 04:19:22;;;;;;;;;23.00;21.50;;;;;19.37;38.61;102018.97;4969345;28;51080;-51
2021/11/11 04:21:48;;;;;;;;;22.25;20.50;;;;;19.36;38.48;102022.75;4954365;28;51150;-53
2021/11/11 04:24:13;;;;;;;;;23.75;23.75;;;;;19.35;38.69;102021.06;4958897;28;51014;-52
2021/11/11 04:26:59;;;;;;;;;27.75;19.25;;;;;19.35;38.73;102040.28;4994994;28;53726;-52
2021/11/11 04:29:27;;;;;;;;;27.50;23.00;;;;;19.32;38.56;102039.63;4955647;28;51140;-53
2021/11/11 04:32:01;;;;;;;;;24.25;21.75;;;;;19.33;38.76;102056.97;4959716;28;51165;-52
2021/11/11 04:34:30;;;;;;;;;24.00;23.00;;;;;19.31;38.72;102043.41;4964659;28;50985;-52
2021/11/11 04:46:59;;;;;;;;;28.50;26.00;;;;;19.28;38.82;102053.94;4957396;28;51161;-52
2021/11/11 05:05:26;;;;;;;;;24.50;19.00;;;;;19.22;39.00;102050.00;4963983;28;51131;-50
2021/11/11 05:07:53;;;;;;;;;23.00;20.00;;;;;19.22;38.68;102046.41;4961360;28;51134;-52
2021/11/11 05:10:18;;;;;;;;;24.00;22.50;;;;;19.21;38.96;102048.31;4955028;28;51063;-49
2021/11/11 05:12:44;;;;;;;;;22.50;22.50;;;;;19.21;38.98;102044.72;4953691;28;51133;-53
2021/11/11 05:15:09;;;;;;;;;23.50;19.50;;;;;19.19;38.94;102049.53;4962617;28;51620;-53
2021/11/11 05:17:35;;;;;;;;;22.00;19.25;;;;;19.19;38.67;102052.28;4962115;28;51607;-49
2021/11/11 05:20:00;;;;;;;;;24.25;19.50;;;;;19.18;38.90;102047.84;4953766;28;50987;-53
2021/11/11 05:22:26;;;;;;;;;21.50;19.75;;;;;19.17;38.72;102046.09;4954294;28;51208;-53
2021/11/11 05:24:51;;;;;;;;;24.50;22.75;;;;;19.18;38.79;102053.31;4960988;28;51271;-53
2021/11/11 05:27:19;;;;;;;;;24.50;22.50;;;;;19.17;39.08;102044.22;4964815;28;51777;-51
2021/11/11 05:29:45;;;;;;;;;26.50;23.25;;;;;19.16;38.82;102050.75;4970956;28;51090;-51
2021/11/11 05:32:10;;;;;;;;;18.25;18.25;;;;;19.16;38.72;102049.88;4971861;28;51105;-50
2021/11/11 05:34:36;;;;;;;;;27.25;22.50;;;;;19.15;39.00;102053.69;4963661;28;51155;-52
2021/11/11 05:37:01;;;;;;;;;26.50;24.25;;;;;19.14;39.04;102057.47;4967183;28;51148;-52
2021/11/11 05:39:27;;;;;;;;;29.50;25.25;;;;;19.15;38.90;102059.16;4953274;28;51118;-51
2021/11/11 05:41:52;;;;;;;;;25.50;24.00;;;;;19.14;38.85;102062.97;4955260;28;51151;-53
2021/11/11 05:44:17;;;;;;;;;22.00;20.00;;;;;19.14;38.83;102063.81;4964803;28;51068;-52
2021/11/11 05:46:43;;;;;;;;;20.25;18.50;;;;;19.13;38.79;102066.75;4954234;28;51119;-52
2021/11/11 05:49:08;;;;;;;;;22.75;21.00;;;;;19.12;39.24;102068.63;4959752;28;51062;-51
2021/11/11 05:51:33;;;;;;;;;29.00;25.50;;;;;19.12;39.00;102070.53;4966928;28;51080;-53
2021/11/11 05:53:59;;;;;;;;;29.25;23.25;;;;;19.11;38.76;102083.41;4966852;28;51725;-52
2021/11/11 05:56:24;;;;;;;;;29.25;25.00;;;;;19.11;38.72;102094.41;4953945;28;51809;-52
2021/11/11 05:58:50;;;;;;;;;27.75;23.50;;;;;19.11;39.12;102090.81;4971803;28;51066;-53
2021/11/11 06:01:15;;;;;;;;;23.00;22.25;;;;;19.10;38.79;102094.59;4955191;28;51104;-50
2021/11/11 06:03:41;;;;;;;;;21.75;20.50;;;;;19.10;39.07;102100.09;4963630;28;51357;-49
2021/11/11 06:06:06;;;;;;;;;21.75;20.75;;;;;19.09;38.89;102103.88;4960469;28;51055;-53
2021/11/11 06:08:32;;;;;;;;;21.25;21.25;;;;;19.09;38.97;102112.09;4971577;28;51204;-50
2021/11/11 06:10:57;;;;;;;;;27.00;22.50;;;;;19.09;38.82;102112.09;4974945;28;51193;-51
2021/11/11 06:13:22;;;;;;;;;26.50;23.25;;;;;19.08;38.87;102119.50;4963595;28;51138;-53
2021/11/11 06:15:49;;;;;;;;;26.75;24.25;;;;;19.07;38.95;102128.78;4963786;28;52802;-53
2021/11/11 06:18:15;;;;;;;;;26.25;24.00;;;;;19.07;38.89;102131.53;4958901;28;51155;-52
2021/11/11 06:20:45;;;;;;;;;23.25;21.75;;;;;19.06;38.96;102134.41;4961578;28;51175;-50
2021/11/11 06:23:12;;;;;;;;;21.25;20.00;;;;;19.06;38.83;102138.03;4967056;28;51246;-53
2021/11/11 06:25:40;;;;;;;;;19.50;18.75;;;;;19.06;39.07;102150.91;4970044;28;51920;-53
2021/11/11 06:28:07;;;;;;;;;26.25;23.25;;;;;19.04;38.89;102153.84;4966155;28;51108;-51
2021/11/11 06:30:32;;;;;;;;;25.50;22.00;;;;;19.04;38.88;102159.31;4957592;27;51204;-53
2021/11/11 06:32:58;;;;;;;;;24.25;22.25;;;;;19.03;38.79;102155.72;4966225;28;50939;-52
2021/11/11 06:35:23;;;;;;;;;25.25;23.25;;;;;19.02;38.76;102162.25;4956108;28;51207;-51
2021/11/11 06:37:49;;;;;;;;;23.50;20.25;;;;;19.00;39.11;102167.06;4969353;28;51226;-53
2021/11/11 06:40:14;;;;;;;;;24.50;21.50;;;;;19.01;38.92;102170.69;4963268;28;51368;-53
2021/11/11 06:42:40;;;;;;;;;22.00;18.50;;;;;19.01;38.69;102178.91;4956715;28;51096;-52
2021/11/11 06:45:11;;;;;;;;;24.00;21.75;;;;;19.00;39.00;102174.47;4966681;28;51749;-53
2021/11/11 06:47:38;;;;;;;;;23.00;22.50;;;;;19.00;39.06;102182.69;4969979;28;51276;-50
2021/11/11 06:50:04;;;;;;;;;23.75;23.25;;;;;18.99;38.98;102198.31;4970482;28;51293;-53
2021/11/11 06:52:30;;;;;;;;;22.50;21.75;;;;;18.98;39.07;102196.63;4969488;28;51191;-53
2021/11/11 06:54:55;;;;;;;;;21.50;19.50;;;;;18.97;38.86;102194.91;4972265;28;52119;-53
2021/11/11 06:57:20;;;;;;;;;24.00;21.00;;;;;18.99;38.95;102202.97;4958249;28;50876;-53
2021/11/11 06:59:46;;;;;;;;;24.75;24.75;;;;;18.99;38.88;102203.81;4969341;28;51407;-52
2021/11/11 07:02:11;;;;;;;;;21.25;17.50;;;;;18.97;39.04;102203.16;4967753;28;51267;-53
2021/11/11 07:04:36;;;;;;;;;27.00;23.25;;;;;18.96;38.90;102209.66;4973910;28;51678;-55
2021/11/11 07:07:02;;;;;;;;;25.75;23.75;;;;;18.96;38.50;102206.91;4973666;28;51304;-51
2021/11/11 07:09:28;;;;;;;;;22.25;18.75;;;;;18.95;38.93;102202.44;4970436;28;51223;-54
2021/11/11 07:11:53;;;;;;;;;28.50;25.75;;;;;18.94;38.97;102203.47;4957728;28;51099;-52
2021/11/11 07:14:18;;;;;;;;;23.25;21.50;;;;;18.94;38.93;102203.47;4956468;28;51653;-54
2021/11/11 07:16:45;;;;;;;;;24.50;23.50;;;;;18.94;38.87;102200.75;4969502;28;51404;-53
2021/11/11 07:19:11;;;;;;;;;27.50;22.50;;;;;18.93;39.10;102199.03;4955718;28;51449;-53
2021/11/11 07:21:36;;;;;;;;;27.00;22.50;;;;;18.94;39.02;102194.41;4974313;28;52494;-52
2021/11/11 07:24:02;;;;;;;;;27.25;24.50;;;;;18.92;39.24;102208.31;4973396;28;51957;-54
2021/11/11 07:26:27;;;;;;;;;27.25;24.75;;;;;18.92;38.93;102204.72;4977107;28;51091;-52
2021/11/11 07:28:53;;;;;;;;;23.75;22.00;;;;;18.92;39.50;102205.56;4963688;28;51509;-52
2021/11/11 07:31:23;;;;;;;;;26.75;23.25;;;;;18.93;39.42;102204.53;4959626;28;51310;-53
2021/11/11 07:33:48;;;;;;;;;27.50;25.25;;;;;18.94;39.46;102210.88;4962217;28;52119;-52
2021/11/11 07:36:14;;;;;;;;;23.00;22.25;;;;;18.94;39.52;102208.97;4958220;28;51353;-52
2021/11/11 07:38:40;;;;;;;;;22.25;21.25;;;;;18.94;39.58;102205.38;4955156;28;51192;-49
2021/11/11 07:41:05;;;;;;;;;26.25;22.00;;;;;18.94;39.41;102206.22;4960985;28;51346;-51
2021/11/11 07:43:30;;;;;;;;;25.00;22.50;;;;;18.94;39.90;102210.88;4960529;28;51317;-52
2021/11/11 07:45:56;;;;;;;;;28.25;24.50;;;;;18.93;39.56;102209.16;4956829;28;51501;-52
2021/11/11 07:48:22;;;;;;;;;21.50;19.75;;;;;18.93;39.78;102204.53;4957723;28;51397;-49
2021/11/11 07:50:48;;;;;;;;;24.25;22.00;;;;;18.95;40.27;102207.09;4963201;28;51045;-53
2021/11/11 07:53:13;;;;;;;;;25.50;24.00;;;;;18.96;39.84;102211.53;4962978;28;51639;-53
2021/11/11 07:55:41;;;;;;;;;25.25;21.25;;;;;18.98;39.74;102207.59;4959141;28;51099;-54
2021/11/11 07:58:08;;;;;;;;;28.25;22.50;;;;;19.03;39.64;102196.91;4956055;28;51266;-53
2021/11/11 08:00:34;;;;;;;;;24.00;22.50;;;;;19.10;39.56;102194.31;4960232;28;51341;-53
2021/11/11 08:02:59;;;;;;;;;24.25;21.00;;;;;19.19;39.18;102200.63;4980897;28;52125;-54
2021/11/11 08:05:25;;;;;;;;;20.25;18.00;;;;;19.28;39.34;102197.66;4958016;28;51215;-52
2021/11/11 08:07:50;;;;;;;;;23.25;20.50;;;;;19.38;39.22;102189.13;4957543;28;51239;-58
2021/11/11 08:10:18;;;;;;;;;7.25;0.00;;;;;19.47;39.09;102188.03;4955655;28;51152;-51
2021/11/11 08:12:44;;;;;;;;;23.50;23.00;;;;;19.56;39.19;102180.63;4957216;28;51135;-53
2021/11/11 08:15:11;;;;;;;;;27.25;19.00;;;;;19.65;39.14;102184.16;4961768;28;50964;-53
2021/11/11 08:17:37;;;;;;;;;26.25;24.25;;;;;19.73;38.95;102179.47;4965596;28;51077;-52
2021/11/11 08:20:05;;;;;;;;;21.50;20.50;;;;;19.82;38.79;102183.00;4968388;28;51050;-51
2021/11/11 08:22:30;;;;;;;;;24.25;18.50;;;;;19.89;38.45;102182.03;4966145;27;52318;-52
2021/11/11 08:24:56;;;;;;;;;24.25;21.75;;;;;19.97;38.68;102186.63;4964354;28;51113;-50
2021/11/11 08:27:24;;;;;;;;;25.00;22.75;;;;;20.04;38.80;102179.34;4965940;28;51164;-51
2021/11/11 08:29:50;;;;;;;;;20.50;20.00;;;;;20.11;38.61;102177.56;4953403;28;51136;-49
2021/11/11 08:32:16;;;;;;;;;20.25;18.00;;;;;20.19;38.28;102190.34;4964714;28;51232;-53
2021/11/11 08:34:44;;;;;;;;;23.25;19.75;;;;;20.26;38.67;102190.47;4966022;28;51467;-54
2021/11/11 08:37:10;;;;;;;;;20.00;18.00;;;;;20.33;38.79;102185.94;4964138;28;51318;-51
2021/11/11 08:39:36;;;;;;;;;18.75;14.00;;;;;20.39;38.18;102185.16;4961197;28;51987;-53
2021/11/11 08:42:02;;;;;;;;;23.50;20.50;;;;;20.44;38.37;102182.72;4955126;28;52009;-55
2021/11/11 08:44:27;;;;;;;;;27.25;26.00;;;;;20.53;38.09;102173.34;4954099;28;51557;-54
2021/11/11 08:46:54;;;;;;;;;22.75;22.50;;;;;20.60;38.33;102171.50;4953102;28;51740;-52
2021/11/11 08:49:19;;;;;;;;;31.75;27.50;;;;;20.68;37.97;102160.41;4952875;28;52568;-54
2021/11/11 08:51:50;;;;;;;;;30.75;25.75;;;;;20.75;38.08;102150.31;4955926;28;51977;-53
2021/11/11 08:54:21;;;;;;;;;20.25;19.25;;;;;20.83;37.97;102154.00;4959626;28;51137;-54
2021/11/11 08:56:48;;;;;;;;;25.25;22.50;;;;;20.91;37.65;102148.38;4956941;28;51149;-52
2021/11/11 08:59:19;;;;;;;;;28.00;23.00;;;;;20.98;38.07;102146.56;4955843;28;51253;-54
2021/11/11 09:01:45;;;;;;;;;26.75;24.50;;;;;21.04;37.86;102138.34;4957768;28;51708;-54
2021/11/11 09:04:12;;;;;;;;;31.50;26.25;;;;;21.08;37.84;102132.47;4964956;28;51551;-55
2021/11/11 09:06:38;;;;;;;;;24.25;22.25;;;;;21.09;37.72;102136.94;4960471;28;51090;-54
2021/11/11 09:09:04;;;;;;;;;23.75;20.50;;;;;21.10;37.67;102135.88;4957803;28;51115;-55
2021/11/11 09:11:29;;;;;;;;;22.50;20.75;;;;;21.11;38.09;102140.34;4959543;28;52745;-52
2021/11/11 09:13:55;;;;;;;;;27.25;20.25;;;;;21.14;37.71;102143.56;4955577;28;51809;-52
2021/11/11 09:16:22;;;;;;;;;24.25;21.25;;;;;21.20;37.57;102142.78;4954788;28;51550;-54
2021/11/11 09:18:48;;;;;;;;;23.00;22.00;;;;;21.25;37.97;102143.03;4958438;27;52261;-52
2021/11/11 09:21:14;;;;;;;;;23.50;20.50;;;;;21.31;37.33;102141.44;4966668;28;52867;-51
2021/11/11 09:23:40;;;;;;;;;21.25;21.25;;;;;21.36;37.69;102138.94;4953947;28;51074;-47
2021/11/11 09:26:07;;;;;;;;;25.75;25.00;;;;;21.40;37.51;102140.25;4959620;28;51212;-53
2021/11/11 09:28:35;;;;;;;;;28.50;23.75;;;;;21.44;37.43;102136.03;4956383;28;51205;-53
2021/11/11 09:31:01;;;;;;;;;25.75;22.75;;;;;21.50;37.15;102142.69;4957387;28;51192;-52
2021/11/11 09:33:26;;;;;;;;;29.00;25.25;;;;;21.51;37.51;102133.34;4967465;28;51506;-53
2021/11/11 09:35:53;;;;;;;;;24.75;19.00;;;;;21.51;37.44;102136.97;4953107;28;51185;-54
2021/11/11 09:38:23;;;;;;;;;26.25;21.50;;;;;21.50;37.62;102140.78;4969747;28;51097;-53
2021/11/11 09:40:49;;;;;;;;;24.00;19.25;;;;;21.48;37.00;102140.13;4960433;28;52021;-54
2021/11/11 09:43:15;;;;;;;;;25.50;23.00;;;;;21.50;37.08;102142.69;4955972;28;51275;-51
2021/11/11 09:45:41;;;;;;;;;28.00;26.25;;;;;21.54;37.44;102144.84;4957934;28;51395;-51
2021/11/11 09:48:09;;;;;;;;;24.75;23.00;;;;;21.60;37.71;102145.97;4961026;28;51165;-53
2021/11/11 09:50:35;;;;;;;;;24.25;23.75;;;;;21.67;36.98;102146.00;4963203;28;50975;-52
2021/11/11 09:53:08;;;;;;;;;26.50;22.50;;;;;21.75;37.46;102138.44;4975254;28;52798;-52
2021/11/11 10:01:17;;;;;;;;;20.50;18.50;;;;;21.81;37.33;102137.66;4963109;28;51606;-51
2021/11/11 10:03:45;;;;;;;;;28.00;20.00;;;;;21.78;36.88;102139.94;4962171;28;51264;-51
2021/11/11 10:06:13;;;;;;;;;29.25;23.00;;;;;21.75;37.01;102137.59;4954910;28;51200;-51
2021/11/11 10:08:42;;;;;;;;;26.50;23.25;;;;;21.76;37.02;102134.63;4971654;28;51153;-54
2021/11/11 10:11:32;;;;;;;;;27.25;23.00;;;;;21.79;37.44;102134.25;4960457;28;51115;-53
2021/11/11 10:14:14;;;;;;;;;22.75;20.25;;;;;21.86;37.55;102131.53;4964390;28;51455;-52
2021/11/11 10:16:45;;;;;;;;;26.50;21.75;;;;;21.92;37.70;102130.72;4956863;28;51221;-51
2021/11/11 10:19:12;;;;;;;;;25.75;22.00;;;;;21.92;37.70;102114.19;4955687;28;51266;-54
2021/11/11 10:21:59;;;;;;;;;30.50;24.50;;;;;21.95;37.48;102104.63;4984269;28;51932;-52
2021/11/11 10:24:27;;;;;;;;;30.50;24.50;;;;;21.95;37.11;102112.91;4960086;28;51145;-54
2021/11/11 10:27:12;;;;;;;;;32.75;27.00;;;;;21.94;37.37;102109.31;4967044;28;51435;-54
2021/11/11 10:29:47;;;;;;;;;29.75;28.25;;;;;21.94;37.10;102097.41;4971212;28;51021;-54
2021/11/11 10:32:17;;;;;;;;;33.00;26.50;;;;;21.98;36.75;102090.44;4966865;28;51925;-51
2021/11/11 10:34:47;;;;;;;;;32.50;26.50;;;;;22.03;36.52;102096.22;4971074;28;51396;-53
2021/11/11 10:37:13;;;;;;;;;35.25;29.75;;;;;22.08;37.02;102083.53;4971703;28;51531;-53
2021/11/11 10:39:41;;;;;;;;;33.00;28.25;;;;;22.17;36.45;102092.50;4972545;28;51362;-53
2021/11/11 10:42:19;;;;;;;;;33.50;30.25;;;;;22.19;36.51;102101.41;4957822;28;50980;-54
2021/11/11 10:44:48;;;;;;;;;25.75;25.50;;;;;22.18;36.67;102111.59;4956041;28;51132;-54
2021/11/11 10:47:24;;;;;;;;;31.25;28.00;;;;;22.16;36.54;102113.72;4968511;28;51025;-53
2021/11/11 10:49:50;;;;;;;;;25.75;24.50;;;;;22.14;36.68;102126.03;4970012;28;51199;-52
2021/11/11 10:52:23;;;;;;;;;29.00;26.50;;;;;22.15;36.27;102127.72;4954274;28;52719;-53
2021/11/11 10:55:13;;;;;;;;;30.75;28.75;;;;;22.20;36.40;102130.75;4955833;28;51059;-51
2021/11/11 10:57:52;;;;;;;;;30.25;27.00;;;;;22.26;35.91;102123.53;4958645;28;51143;-54
2021/11/11 11:00:26;;;;;;;;;26.00;25.25;;;;;22.32;36.64;102118.06;4973536;28;51180;-54
2021/11/11 11:03:04;;;;;;;;;24.75;24.50;;;;;22.35;35.84;102117.66;4966435;28;52519;-53
2021/11/11 11:05:54;;;;;;;;;30.25;26.75;;;;;22.35;36.25;102101.09;4971096;28;51378;-52
2021/11/11 11:08:21;;;;;;;;;33.75;29.00;;;;;22.33;36.30;102100.44;4972649;28;51088;-53
2021/11/11 11:10:50;;;;;;;;;30.25;25.50;;;;;22.28;35.79;102089.16;4965781;28;51082;-52
2021/11/11 11:13:19;;;;;;;;;30.75;28.25;;;;;22.22;36.25;102081.72;4965151;28;51815;-51
2021/11/11 11:15:47;;;;;;;;;29.75;27.00;;;;;22.21;36.11;102082.75;4962705;28;51595;-53
2021/11/11 11:18:15;;;;;;;;;30.75;24.50;;;;;22.22;35.95;102084.47;4969927;28;51178;-54
2021/11/11 11:20:41;;;;;;;;;32.00;28.25;;;;;22.29;35.70;102078.97;4973270;28;51108;-54
2021/11/11 11:23:23;;;;;;;;;30.75;27.25;;;;;22.32;36.24;102051.81;4967136;28;54210;-53
2021/11/11 11:25:53;;;;;;;;;34.75;31.00;;;;;22.38;36.73;102058.41;4961257;28;51469;-52
2021/11/11 11:28:30;;;;;;;;;27.50;22.25;;;;;22.42;36.88;102060.56;4975995;28;51264;-54
2021/11/11 11:30:57;;;;;;;;;40.00;33.00;;;;;22.44;36.57;102065.88;4962470;28;51404;-53
2021/11/11 11:33:32;;;;;;;;;42.75;30.50;;;;;22.44;36.90;102060.34;4954142;28;51691;-52
2021/11/11 11:35:59;;;;;;;;;36.75;31.00;;;;;22.40;36.49;102070.09;4964275;28;51135;-55
2021/11/11 11:38:26;;;;;;;;;35.25;27.50;;;;;22.36;36.51;102066.91;4957730;28;51157;-50
2021/11/11 11:40:52;;;;;;;;;40.00;33.50;;;;;22.31;36.90;102063.94;4971070;28;51267;-53